createdAt,value
2017-01-16T00:00:16.712Z,0
2017-01-16T00:00:57.521Z,0
2017-01-16T00:01:38.271Z,0
2017-01-16T00:02:18.696Z,0
2017-01-16T00:02:59.274Z,0
2017-01-16T00:03:39.880Z,0
2017-01-16T00:04:20.605Z,0
2017-01-16T00:05:01.098Z,0
2017-01-16T00:05:41.864Z,0
2017-01-16T00:06:22.697Z,0
2017-01-16T00:07:03.226Z,0
2017-01-16T00:07:43.713Z,0
2017-01-16T00:08:24.356Z,0
2017-01-16T00:09:04.705Z,0
2017-01-16T00:09:45.204Z,0
2017-01-16T00:10:25.637Z,0
2017-01-16T00:11:06.159Z,0
2017-01-16T00:11:46.644Z,0
2017-01-16T00:12:27.192Z,0
2017-01-16T00:13:07.651Z,0
2017-01-16T00:13:48.156Z,0
2017-01-16T00:14:28.641Z,0
2017-01-16T00:15:09.166Z,0
2017-01-16T00:15:49.694Z,0
2017-01-16T00:16:30.156Z,0
2017-01-16T00:17:10.701Z,0
2017-01-16T00:17:51.172Z,0
2017-01-16T00:18:31.654Z,0
2017-01-16T00:19:12.159Z,0
2017-01-16T00:19:52.628Z,0
2017-01-16T00:20:33.137Z,0
2017-01-16T00:21:13.628Z,0
2017-01-16T00:21:54.227Z,0
2017-01-16T00:22:34.628Z,0
2017-01-16T00:23:15.144Z,0
2017-01-16T00:23:55.592Z,0
2017-01-16T00:24:36.070Z,0
2017-01-16T00:25:16.554Z,0
2017-01-16T00:25:57.073Z,0
2017-01-16T00:26:37.548Z,0
2017-01-16T00:27:18.070Z,0
2017-01-16T00:27:58.575Z,0
2017-01-16T00:28:39.044Z,0
2017-01-16T00:29:19.540Z,0
2017-01-16T00:30:00.065Z,0
2017-01-16T00:30:40.532Z,0
2017-01-16T00:31:21.047Z,0
2017-01-16T00:32:01.559Z,0
2017-01-16T00:32:42.052Z,0
2017-01-16T00:33:22.551Z,0
2017-01-16T00:34:03.044Z,0
2017-01-16T00:34:43.590Z,0
2017-01-16T00:35:24.058Z,0
2017-01-16T00:36:04.554Z,0
2017-01-16T00:36:45.231Z,0
2017-01-16T00:37:25.751Z,0
2017-01-16T00:38:06.242Z,0
2017-01-16T00:38:46.704Z,0
2017-01-16T00:39:27.207Z,0
2017-01-16T00:40:07.681Z,0
2017-01-16T00:40:48.157Z,0
2017-01-16T00:41:28.680Z,0
2017-01-16T00:42:09.186Z,0
2017-01-16T00:42:49.651Z,0
2017-01-16T00:43:30.122Z,0
2017-01-16T00:44:10.622Z,0
2017-01-16T00:44:51.124Z,0
2017-01-16T00:45:31.580Z,0
2017-01-16T00:46:12.076Z,0
2017-01-16T00:46:52.569Z,0
2017-01-16T00:47:33.077Z,0
2017-01-16T00:48:13.627Z,0
2017-01-16T00:48:54.043Z,0
2017-01-16T00:49:34.551Z,0
2017-01-16T00:50:15.051Z,0
2017-01-16T00:50:55.583Z,0
2017-01-16T00:51:36.019Z,0
2017-01-16T00:52:16.552Z,0
2017-01-16T00:52:57.021Z,0
2017-01-16T00:53:37.494Z,0
2017-01-16T00:54:18.364Z,0
2017-01-16T00:54:58.776Z,0
2017-01-16T00:55:39.200Z,0
2017-01-16T00:56:19.742Z,0
2017-01-16T00:57:00.198Z,0
2017-01-16T00:57:40.672Z,0
2017-01-16T00:58:21.157Z,0
2017-01-16T00:59:01.624Z,0
2017-01-16T00:59:42.136Z,0
2017-01-16T01:00:22.618Z,0
2017-01-16T01:01:03.113Z,0
2017-01-16T01:01:43.625Z,0
2017-01-16T01:02:24.080Z,0
2017-01-16T01:03:04.627Z,0
2017-01-16T01:03:45.080Z,0
2017-01-16T01:04:25.586Z,0
2017-01-16T01:05:06.081Z,0
2017-01-16T01:05:46.584Z,0
2017-01-16T01:06:27.076Z,0
2017-01-16T01:07:07.604Z,0
2017-01-16T01:07:48.080Z,0
2017-01-16T01:08:28.593Z,0
2017-01-16T01:09:09.069Z,0
2017-01-16T01:09:49.564Z,0
2017-01-16T01:10:30.072Z,0
2017-01-16T01:11:10.523Z,0
2017-01-16T01:11:50.960Z,0
2017-01-16T01:12:31.480Z,0
2017-01-16T01:13:11.963Z,0
2017-01-16T01:13:52.450Z,0
2017-01-16T01:14:33.035Z,0
2017-01-16T01:15:13.500Z,0
2017-01-16T01:15:54.246Z,0
2017-01-16T01:16:34.716Z,0
2017-01-16T01:17:15.166Z,0
2017-01-16T01:17:55.627Z,0
2017-01-16T01:18:36.119Z,0
2017-01-16T01:19:16.588Z,0
2017-01-16T01:19:57.067Z,0
2017-01-16T01:20:37.527Z,0
2017-01-16T01:21:18.051Z,0
2017-01-16T01:21:58.502Z,0
2017-01-16T01:22:39.041Z,0
2017-01-16T01:23:19.488Z,0
2017-01-16T01:24:00.016Z,0
2017-01-16T01:24:40.484Z,0
2017-01-16T01:25:20.945Z,0
2017-01-16T01:26:01.492Z,0
2017-01-16T01:26:42.040Z,0
2017-01-16T01:27:22.451Z,0
2017-01-16T01:28:02.978Z,0
2017-01-16T01:30:16.390Z,0
2017-01-16T01:30:56.907Z,0
2017-01-16T01:31:37.360Z,0
2017-01-16T01:32:17.902Z,0
2017-01-16T01:32:58.459Z,0
2017-01-16T01:33:38.905Z,0
2017-01-16T01:34:19.471Z,0
2017-01-16T01:34:59.860Z,0
2017-01-16T01:35:40.399Z,0
2017-01-16T01:36:20.854Z,0
2017-01-16T01:37:01.316Z,0
2017-01-16T01:37:41.873Z,0
2017-01-16T01:38:22.354Z,0
2017-01-16T01:39:02.819Z,0
2017-01-16T01:39:43.455Z,0
2017-01-16T01:40:24.220Z,0
2017-01-16T01:41:04.631Z,0
2017-01-16T01:41:45.213Z,0
2017-01-16T01:42:25.881Z,0
2017-01-16T01:43:06.283Z,0
2017-01-16T01:43:46.825Z,0
2017-01-16T01:44:27.419Z,0
2017-01-16T01:45:08.073Z,0
2017-01-16T01:45:48.707Z,0
2017-01-16T01:46:29.100Z,0
2017-01-16T01:47:09.548Z,0
2017-01-16T01:47:50.014Z,0
2017-01-16T01:48:30.501Z,0
2017-01-16T01:50:49.051Z,0
2017-01-16T01:51:29.464Z,0
2017-01-16T01:52:09.955Z,0
2017-01-16T01:52:50.416Z,0
2017-01-16T01:53:30.919Z,0
2017-01-16T01:54:11.459Z,0
2017-01-16T01:54:51.958Z,0
2017-01-16T01:55:32.514Z,0
2017-01-16T01:56:12.911Z,0
2017-01-16T01:56:53.441Z,0
2017-01-16T01:57:33.971Z,0
2017-01-16T01:58:14.410Z,0
2017-01-16T01:58:54.905Z,0
2017-01-16T01:59:35.387Z,0
2017-01-16T02:00:15.947Z,0
2017-01-16T02:00:56.415Z,0
2017-01-16T02:01:36.937Z,0
2017-01-16T02:02:17.408Z,0
2017-01-16T02:02:57.858Z,0
2017-01-16T02:03:38.417Z,0
2017-01-16T02:04:23.709Z,0
2017-01-16T02:05:04.204Z,0
2017-01-16T02:05:44.725Z,0
2017-01-16T02:06:25.214Z,0
2017-01-16T02:07:05.710Z,0
2017-01-16T02:07:46.199Z,0
2017-01-16T02:08:26.686Z,0
2017-01-16T02:09:07.138Z,0
2017-01-16T02:09:47.684Z,0
2017-01-16T02:10:28.167Z,0
2017-01-16T02:11:08.636Z,0
2017-01-16T02:11:49.183Z,0
2017-01-16T02:12:29.621Z,0
2017-01-16T02:13:10.168Z,0
2017-01-16T02:13:50.711Z,0
2017-01-16T02:14:31.195Z,0
2017-01-16T02:15:11.663Z,0
2017-01-16T02:15:52.156Z,0
2017-01-16T02:16:32.606Z,0
2017-01-16T02:17:13.039Z,0
2017-01-16T02:17:53.536Z,0
2017-01-16T02:18:34.028Z,0
2017-01-16T02:19:14.487Z,0
2017-01-16T02:19:54.974Z,0
2017-01-16T02:22:08.250Z,0
2017-01-16T02:22:48.729Z,0
2017-01-16T02:23:29.211Z,0
2017-01-16T02:24:09.741Z,0
2017-01-16T02:24:50.192Z,0
2017-01-16T02:25:30.648Z,0
2017-01-16T02:26:11.257Z,0
2017-01-16T02:26:51.674Z,0
2017-01-16T02:27:32.128Z,0
2017-01-16T02:28:12.609Z,0
2017-01-16T02:28:53.093Z,0
2017-01-16T02:29:33.573Z,0
2017-01-16T02:30:14.090Z,0
2017-01-16T02:30:54.600Z,0
2017-01-16T02:31:35.059Z,0
2017-01-16T02:32:15.498Z,0
2017-01-16T02:32:56.044Z,0
2017-01-16T02:33:36.518Z,0
2017-01-16T02:34:16.952Z,0
2017-01-16T02:34:57.484Z,0
2017-01-16T02:35:38.005Z,0
2017-01-16T02:36:18.484Z,0
2017-01-16T02:36:58.949Z,0
2017-01-16T02:37:39.437Z,0
2017-01-16T02:38:19.962Z,0
2017-01-16T02:39:00.417Z,0
2017-01-16T02:39:40.885Z,0
2017-01-16T02:40:21.358Z,0
2017-01-16T02:41:01.998Z,0
2017-01-16T02:41:42.487Z,0
2017-01-16T02:42:22.970Z,0
2017-01-16T02:43:03.445Z,0
2017-01-16T02:43:43.986Z,0
2017-01-16T02:44:24.437Z,0
2017-01-16T02:45:04.950Z,0
2017-01-16T02:45:45.389Z,0
2017-01-16T02:46:25.866Z,0
2017-01-16T02:47:06.350Z,0
2017-01-16T02:47:46.899Z,0
2017-01-16T02:48:27.340Z,0
2017-01-16T02:49:07.813Z,0
2017-01-16T02:49:48.290Z,0
2017-01-16T02:50:28.778Z,0
2017-01-16T02:51:09.590Z,0
2017-01-16T02:51:53.142Z,0
2017-01-16T02:52:33.587Z,0
2017-01-16T02:53:14.043Z,0
2017-01-16T02:53:56.722Z,0
2017-01-16T02:59:23.315Z,0
2017-01-16T03:00:03.858Z,0
2017-01-16T03:00:46.048Z,0
2017-01-16T03:01:26.581Z,0
2017-01-16T03:02:07.104Z,0
2017-01-16T03:02:47.723Z,0
2017-01-16T03:03:31.084Z,0
2017-01-16T03:04:13.175Z,0
2017-01-16T03:04:54.266Z,0
2017-01-16T03:05:34.774Z,0
2017-01-16T03:06:15.303Z,0
2017-01-16T03:06:55.774Z,0
2017-01-16T03:07:36.256Z,0
2017-01-16T03:08:18.453Z,0
2017-01-16T03:08:59.024Z,0
2017-01-16T03:09:39.485Z,0
2017-01-16T03:10:19.999Z,0
2017-01-16T03:11:00.452Z,0
2017-01-16T03:11:40.991Z,0
2017-01-16T03:12:21.599Z,0
2017-01-16T03:13:03.797Z,0
2017-01-16T03:13:44.284Z,0
2017-01-16T03:14:24.861Z,0
2017-01-16T03:15:05.397Z,0
2017-01-16T03:15:46.242Z,0
2017-01-16T03:16:26.762Z,0
2017-01-16T03:18:41.340Z,0
2017-01-16T03:19:23.661Z,0
2017-01-16T03:20:04.515Z,0
2017-01-16T03:22:40.267Z,0
2017-01-16T03:23:22.159Z,0
2017-01-16T03:24:02.266Z,0
2017-01-16T03:24:43.162Z,0
2017-01-16T03:25:24.194Z,0
2017-01-16T03:26:07.652Z,0
2017-01-16T03:26:50.945Z,0
2017-01-16T03:27:31.535Z,0
2017-01-16T03:28:12.066Z,0
2017-01-16T03:28:52.552Z,0
2017-01-16T03:29:33.149Z,0
2017-01-16T03:30:13.572Z,0
2017-01-16T03:30:54.065Z,0
2017-01-16T03:31:34.577Z,0
2017-01-16T03:32:15.035Z,0
2017-01-16T03:32:55.563Z,0
2017-01-16T03:33:36.030Z,0
2017-01-16T03:34:16.516Z,0
2017-01-16T03:34:57.023Z,0
2017-01-16T03:35:37.535Z,0
2017-01-16T03:36:18.006Z,0
2017-01-16T03:36:58.481Z,0
2017-01-16T03:37:39.113Z,0
2017-01-16T03:38:20.519Z,0
2017-01-16T03:39:01.466Z,0
2017-01-16T03:39:41.870Z,0
2017-01-16T03:40:22.484Z,0
2017-01-16T03:41:03.044Z,0
2017-01-16T03:41:44.205Z,0
2017-01-16T03:42:24.776Z,0
2017-01-16T03:43:05.276Z,0
2017-01-16T03:43:46.156Z,0
2017-01-16T03:44:27.498Z,0
2017-01-16T03:45:08.327Z,0
2017-01-16T03:45:48.708Z,0
2017-01-16T03:46:29.324Z,0
2017-01-16T03:47:09.739Z,0
2017-01-16T03:47:51.384Z,0
2017-01-16T03:48:31.309Z,0
2017-01-16T03:49:12.158Z,0
2017-01-16T03:49:53.186Z,0
2017-01-16T03:50:33.716Z,0
2017-01-16T03:51:14.371Z,0
2017-01-16T03:51:55.032Z,0
2017-01-16T03:52:35.510Z,0
2017-01-16T03:53:16.037Z,0
2017-01-16T03:53:56.484Z,0
2017-01-16T03:54:36.992Z,0
2017-01-16T03:55:17.479Z,0
2017-01-16T03:55:57.967Z,0
2017-01-16T03:56:38.413Z,0
2017-01-16T03:57:18.912Z,0
2017-01-16T03:57:59.516Z,0
2017-01-16T03:58:40.168Z,0
2017-01-16T03:59:20.901Z,0
2017-01-16T04:00:01.411Z,0
2017-01-16T04:00:41.765Z,0
2017-01-16T04:01:22.287Z,0
2017-01-16T04:02:02.766Z,0
2017-01-16T04:02:43.216Z,0
2017-01-16T04:03:23.700Z,0
2017-01-16T04:04:04.225Z,0
2017-01-16T04:04:44.650Z,0
2017-01-16T04:05:25.864Z,0
2017-01-16T04:06:06.395Z,0
2017-01-16T04:06:47.219Z,0
2017-01-16T04:07:27.645Z,0
2017-01-16T04:08:08.136Z,0
2017-01-16T04:08:48.578Z,0
2017-01-16T04:09:29.061Z,0
2017-01-16T04:10:09.576Z,0
2017-01-16T04:10:50.050Z,0
2017-01-16T04:11:30.594Z,0
2017-01-16T04:12:11.462Z,0
2017-01-16T04:12:51.972Z,0
2017-01-16T04:13:32.456Z,0
2017-01-16T04:14:12.914Z,0
2017-01-16T04:14:53.600Z,0
2017-01-16T04:15:34.147Z,0
2017-01-16T04:16:14.623Z,0
2017-01-16T04:16:55.133Z,0
2017-01-16T04:17:35.629Z,0
2017-01-16T04:18:16.154Z,0
2017-01-16T04:18:56.647Z,0
2017-01-16T04:19:37.149Z,0
2017-01-16T04:20:17.903Z,0
2017-01-16T04:20:58.403Z,0
2017-01-16T04:21:38.991Z,0
2017-01-16T04:22:19.450Z,0
2017-01-16T04:22:59.957Z,0
2017-01-16T04:23:40.465Z,0
2017-01-16T04:24:21.133Z,0
2017-01-16T04:25:01.607Z,0
2017-01-16T04:25:42.114Z,0
2017-01-16T04:26:22.997Z,0
2017-01-16T04:27:03.226Z,0
2017-01-16T04:27:43.728Z,0
2017-01-16T04:28:24.271Z,0
2017-01-16T04:29:05.132Z,0
2017-01-16T04:29:45.650Z,0
2017-01-16T04:30:26.077Z,0
2017-01-16T04:31:06.853Z,0
2017-01-16T04:31:47.099Z,0
2017-01-16T04:32:27.694Z,0
2017-01-16T04:33:08.085Z,0
2017-01-16T04:33:48.604Z,0
2017-01-16T04:34:29.093Z,0
2017-01-16T04:35:09.622Z,0
2017-01-16T04:35:50.239Z,0
2017-01-16T04:36:30.584Z,0
2017-01-16T04:37:11.044Z,0
2017-01-16T04:37:51.529Z,0
2017-01-16T04:38:32.026Z,0
2017-01-16T04:39:12.531Z,0
2017-01-16T04:39:52.975Z,0
2017-01-16T04:40:33.681Z,0
2017-01-16T04:41:14.143Z,0
2017-01-16T04:41:54.643Z,0
2017-01-16T04:42:35.100Z,0
2017-01-16T04:43:15.608Z,0
2017-01-16T04:43:56.090Z,0
2017-01-16T04:44:36.612Z,0
2017-01-16T04:45:17.235Z,0
2017-01-16T04:45:57.648Z,0
2017-01-16T04:46:38.081Z,0
2017-01-16T04:47:18.567Z,0
2017-01-16T04:47:59.071Z,0
2017-01-16T04:48:39.578Z,0
2017-01-16T04:49:20.032Z,0
2017-01-16T04:50:00.803Z,0
2017-01-16T04:50:41.041Z,0
2017-01-16T04:51:21.543Z,0
2017-01-16T04:52:02.063Z,0
2017-01-16T04:52:42.703Z,0
2017-01-16T04:53:23.181Z,0
2017-01-16T04:54:03.726Z,0
2017-01-16T04:54:44.403Z,0
2017-01-16T04:55:24.939Z,0
2017-01-16T04:56:05.398Z,0
2017-01-16T04:56:45.914Z,0
2017-01-16T04:57:26.409Z,0
2017-01-16T04:58:06.880Z,0
2017-01-16T04:58:47.361Z,0
2017-01-16T04:59:27.976Z,0
2017-01-16T05:00:08.344Z,0
2017-01-16T05:00:48.836Z,0
2017-01-16T05:01:29.363Z,0
2017-01-16T05:02:09.887Z,0
2017-01-16T05:02:50.351Z,0
2017-01-16T05:03:30.833Z,0
2017-01-16T05:04:11.400Z,0
2017-01-16T05:04:51.836Z,0
2017-01-16T05:05:32.396Z,0
2017-01-16T05:06:12.859Z,0
2017-01-16T05:06:53.338Z,0
2017-01-16T05:07:33.862Z,0
2017-01-16T05:08:14.372Z,0
2017-01-16T05:08:54.930Z,0
2017-01-16T05:09:35.378Z,0
2017-01-16T05:10:15.998Z,0
2017-01-16T05:10:56.324Z,0
2017-01-16T05:11:36.881Z,0
2017-01-16T05:12:17.304Z,0
2017-01-16T05:12:57.811Z,0
2017-01-16T05:13:38.277Z,0
2017-01-16T05:14:18.748Z,0
2017-01-16T05:14:59.243Z,0
2017-01-16T05:15:39.741Z,0
2017-01-16T05:16:20.204Z,0
2017-01-16T05:17:00.692Z,0
2017-01-16T05:17:41.225Z,0
2017-01-16T05:18:21.738Z,0
2017-01-16T05:19:02.193Z,0
2017-01-16T05:19:42.689Z,0
2017-01-16T05:20:23.184Z,0
2017-01-16T05:21:03.677Z,0
2017-01-16T05:21:44.166Z,0
2017-01-16T05:22:24.732Z,0
2017-01-16T05:23:05.239Z,0
2017-01-16T05:23:45.688Z,0
2017-01-16T05:24:26.200Z,0
2017-01-16T05:25:06.685Z,0
2017-01-16T05:25:47.193Z,0
2017-01-16T05:26:27.697Z,0
2017-01-16T05:27:08.150Z,0
2017-01-16T05:27:48.689Z,0
2017-01-16T05:28:29.145Z,0
2017-01-16T05:29:09.677Z,0
2017-01-16T05:29:50.153Z,0
2017-01-16T05:30:30.603Z,0
2017-01-16T05:31:11.097Z,0
2017-01-16T05:31:51.643Z,0
2017-01-16T05:32:32.072Z,0
2017-01-16T05:33:12.590Z,0
2017-01-16T05:33:53.049Z,0
2017-01-16T05:34:33.628Z,0
2017-01-16T05:35:14.123Z,0
2017-01-16T05:35:54.673Z,0
2017-01-16T05:36:35.104Z,0
2017-01-16T05:37:15.582Z,0
2017-01-16T05:37:56.072Z,0
2017-01-16T05:38:36.564Z,0
2017-01-16T05:39:17.036Z,0
2017-01-16T05:39:57.543Z,0
2017-01-16T05:40:38.078Z,0
2017-01-16T05:41:18.584Z,0
2017-01-16T05:41:59.002Z,0
2017-01-16T05:42:39.515Z,0
2017-01-16T05:43:19.970Z,0
2017-01-16T05:44:00.506Z,0
2017-01-16T05:44:40.923Z,0
2017-01-16T05:45:21.382Z,0
2017-01-16T05:46:01.880Z,0
2017-01-16T05:46:42.379Z,0
2017-01-16T05:47:22.821Z,0
2017-01-16T05:48:03.362Z,0
2017-01-16T05:48:43.882Z,0
2017-01-16T05:51:17.386Z,0
2017-01-16T05:51:57.864Z,0
2017-01-16T05:52:38.397Z,0
2017-01-16T05:53:18.880Z,0
2017-01-16T05:53:59.394Z,0
2017-01-16T05:54:39.848Z,0
2017-01-16T05:55:20.352Z,0
2017-01-16T05:56:00.851Z,0
2017-01-16T05:56:41.308Z,0
2017-01-16T05:57:21.770Z,0
2017-01-16T05:58:02.231Z,0
2017-01-16T05:58:42.712Z,0
2017-01-16T05:59:23.187Z,0
2017-01-16T06:00:03.687Z,0
2017-01-16T06:00:44.173Z,0
2017-01-16T06:01:24.669Z,0
2017-01-16T06:02:05.127Z,0
2017-01-16T06:02:45.619Z,0
2017-01-16T06:03:26.143Z,0
2017-01-16T06:04:06.614Z,0
2017-01-16T06:04:47.121Z,0
2017-01-16T06:05:27.675Z,0
2017-01-16T06:06:08.112Z,0
2017-01-16T06:06:48.618Z,0
2017-01-16T06:07:29.128Z,0
2017-01-16T06:08:09.602Z,0
2017-01-16T06:08:50.075Z,0
2017-01-16T06:09:30.568Z,0
2017-01-16T06:10:11.039Z,0
2017-01-16T06:10:51.549Z,0
2017-01-16T06:11:32.021Z,0
2017-01-16T06:12:12.523Z,0
2017-01-16T06:12:53.016Z,0
2017-01-16T06:13:33.507Z,0
2017-01-16T06:14:14.015Z,0
2017-01-16T06:14:54.525Z,0
2017-01-16T06:15:35.008Z,0
2017-01-16T06:16:15.544Z,0
2017-01-16T06:16:56.013Z,0
2017-01-16T06:17:36.495Z,0
2017-01-16T06:18:16.988Z,0
2017-01-16T06:18:57.504Z,0
2017-01-16T06:19:37.946Z,0
2017-01-16T06:20:18.440Z,0
2017-01-16T06:20:58.951Z,0
2017-01-16T06:21:39.462Z,0
2017-01-16T06:22:19.958Z,0
2017-01-16T06:23:00.431Z,0
2017-01-16T06:23:40.877Z,0
2017-01-16T06:24:21.413Z,0
2017-01-16T06:25:01.847Z,0
2017-01-16T06:25:42.354Z,0
2017-01-16T06:26:22.844Z,0
2017-01-16T06:27:03.351Z,0
2017-01-16T06:27:43.837Z,0
2017-01-16T06:28:24.413Z,0
2017-01-16T06:29:04.983Z,0
2017-01-16T06:29:45.417Z,0
2017-01-16T06:30:25.898Z,0
2017-01-16T06:31:06.360Z,0
2017-01-16T06:31:46.859Z,0
2017-01-16T06:32:27.413Z,0
2017-01-16T06:33:07.945Z,0
2017-01-16T06:33:48.391Z,0
2017-01-16T06:34:29.018Z,0
2017-01-16T06:35:09.385Z,0
2017-01-16T06:35:49.842Z,0
2017-01-16T06:36:30.321Z,0
2017-01-16T06:37:10.853Z,0
2017-01-16T06:37:51.348Z,0
2017-01-16T06:38:31.823Z,0
2017-01-16T06:39:12.344Z,0
2017-01-16T06:39:52.828Z,0
2017-01-16T06:40:33.882Z,0
2017-01-16T06:41:14.365Z,0
2017-01-16T06:41:54.861Z,0
2017-01-16T06:42:35.402Z,0
2017-01-16T06:43:15.885Z,0
2017-01-16T06:43:56.349Z,0
2017-01-16T06:44:36.940Z,0
2017-01-16T06:45:17.467Z,4
2017-01-16T06:45:57.899Z,4
2017-01-16T06:46:38.358Z,0
2017-01-16T06:47:18.842Z,0
2017-01-16T06:47:59.345Z,4
2017-01-16T06:48:39.822Z,4
2017-01-16T06:49:20.300Z,4
2017-01-16T06:50:00.847Z,4
2017-01-16T06:50:41.324Z,4
2017-01-16T06:51:21.873Z,4
2017-01-16T06:52:02.344Z,4
2017-01-16T06:52:42.789Z,4
2017-01-16T06:53:23.288Z,8
2017-01-16T06:54:03.758Z,4
2017-01-16T06:54:44.280Z,8
2017-01-16T06:55:24.730Z,8
2017-01-16T06:56:05.197Z,8
2017-01-16T06:56:45.652Z,12
2017-01-16T06:57:26.154Z,12
2017-01-16T06:58:06.647Z,12
2017-01-16T06:58:47.139Z,12
2017-01-16T06:59:27.597Z,16
2017-01-16T07:00:08.121Z,16
2017-01-16T07:00:48.629Z,20
2017-01-16T07:01:29.054Z,20
2017-01-16T07:02:09.576Z,20
2017-01-16T07:02:50.064Z,24
2017-01-16T07:03:30.591Z,28
2017-01-16T07:04:11.046Z,32
2017-01-16T07:04:51.538Z,32
2017-01-16T07:05:32.025Z,36
2017-01-16T07:06:12.531Z,36
2017-01-16T07:06:53.055Z,44
2017-01-16T07:07:33.562Z,48
2017-01-16T07:08:14.073Z,48
2017-01-16T07:08:54.584Z,56
2017-01-16T07:09:35.081Z,60
2017-01-16T07:10:15.597Z,64
2017-01-16T07:10:56.108Z,68
2017-01-16T07:11:36.636Z,72
2017-01-16T07:12:17.146Z,68
2017-01-16T07:12:57.624Z,76
2017-01-16T07:13:38.126Z,84
2017-01-16T07:14:18.638Z,92
2017-01-16T07:14:59.156Z,96
2017-01-16T07:15:39.652Z,96
2017-01-16T07:16:20.155Z,100
2017-01-16T07:17:00.690Z,104
2017-01-16T07:17:41.157Z,112
2017-01-16T07:18:21.637Z,124
2017-01-16T07:19:02.163Z,136
2017-01-16T07:19:42.711Z,140
2017-01-16T07:20:23.271Z,148
2017-01-16T07:21:03.826Z,156
2017-01-16T07:21:44.285Z,168
2017-01-16T07:22:24.820Z,160
2017-01-16T07:23:05.325Z,152
2017-01-16T07:23:45.833Z,160
2017-01-16T07:25:43.779Z,188
2017-01-16T07:26:24.310Z,200
2017-01-16T07:27:05.060Z,208
2017-01-16T07:27:45.575Z,216
2017-01-16T07:28:26.075Z,236
2017-01-16T07:29:06.978Z,252
2017-01-16T07:29:47.377Z,260
2017-01-16T07:30:27.886Z,276
2017-01-16T07:31:08.411Z,288
2017-01-16T07:31:48.913Z,300
2017-01-16T07:32:29.576Z,312
2017-01-16T07:33:10.020Z,324
2017-01-16T07:33:50.542Z,336
2017-01-16T07:34:31.054Z,336
2017-01-16T07:35:11.570Z,360
2017-01-16T07:35:52.096Z,372
2017-01-16T07:36:32.590Z,384
2017-01-16T07:37:13.054Z,392
2017-01-16T07:37:53.537Z,404
2017-01-16T07:38:34.091Z,416
2017-01-16T07:39:14.577Z,428
2017-01-16T07:41:43.045Z,472
2017-01-16T07:42:23.582Z,484
2017-01-16T07:43:04.064Z,496
2017-01-16T07:43:44.634Z,504
2017-01-16T07:44:25.150Z,516
2017-01-16T07:45:05.622Z,524
2017-01-16T07:45:46.326Z,536
2017-01-16T07:46:26.814Z,552
2017-01-16T07:47:07.330Z,560
2017-01-16T07:47:47.914Z,576
2017-01-16T07:48:28.395Z,584
2017-01-16T07:49:08.931Z,596
2017-01-16T07:49:49.428Z,608
2017-01-16T07:50:29.941Z,616
2017-01-16T07:51:10.416Z,628
2017-01-16T07:51:50.928Z,640
2017-01-16T07:52:31.437Z,648
2017-01-16T07:53:11.927Z,664
2017-01-16T07:53:52.414Z,672
2017-01-16T07:54:32.930Z,656
2017-01-16T07:55:13.390Z,632
2017-01-16T07:55:53.917Z,640
2017-01-16T07:56:34.397Z,660
2017-01-16T07:57:14.918Z,636
2017-01-16T07:57:55.419Z,648
2017-01-16T07:58:35.920Z,672
2017-01-16T07:59:16.400Z,696
2017-01-16T07:59:56.850Z,688
2017-01-16T08:00:37.375Z,708
2017-01-16T08:01:17.868Z,732
2017-01-16T08:01:58.419Z,748
2017-01-16T08:02:38.893Z,760
2017-01-16T08:03:19.340Z,776
2017-01-16T08:03:59.891Z,792
2017-01-16T08:04:40.342Z,800
2017-01-16T08:05:20.838Z,808
2017-01-16T08:06:01.313Z,816
2017-01-16T08:06:41.803Z,812
2017-01-16T08:07:22.337Z,828
2017-01-16T08:08:02.781Z,820
2017-01-16T08:08:43.464Z,820
2017-01-16T08:10:41.753Z,880
2017-01-16T08:11:22.254Z,876
2017-01-16T08:12:02.927Z,888
2017-01-16T08:12:43.406Z,896
2017-01-16T08:13:23.924Z,908
2017-01-16T08:14:04.439Z,924
2017-01-16T08:14:44.975Z,932
2017-01-16T08:15:25.474Z,940
2017-01-16T08:16:05.977Z,944
2017-01-16T08:16:46.488Z,952
2017-01-16T08:17:26.995Z,1000
2017-01-16T08:18:07.501Z,996
2017-01-16T08:18:48.021Z,988
2017-01-16T08:19:28.536Z,1000
2017-01-16T08:20:09.048Z,1000
2017-01-16T08:20:49.553Z,996
2017-01-16T08:21:30.058Z,1008
2017-01-16T08:22:10.571Z,1024
2017-01-16T08:22:51.083Z,1024
2017-01-16T08:23:31.595Z,1044
2017-01-16T08:24:12.104Z,1052
2017-01-16T08:24:52.608Z,1048
2017-01-16T08:25:33.113Z,1044
2017-01-16T08:26:13.592Z,1068
2017-01-16T08:26:54.087Z,1064
2017-01-16T08:27:34.591Z,1068
2017-01-16T08:28:15.106Z,1076
2017-01-16T08:28:55.617Z,1084
2017-01-16T08:29:36.139Z,1108
2017-01-16T08:30:16.609Z,1088
2017-01-16T08:30:57.135Z,1104
2017-01-16T08:33:11.986Z,1156
2017-01-16T08:33:52.520Z,1172
2017-01-16T08:34:33.030Z,1200
2017-01-16T08:35:13.520Z,1280
2017-01-16T08:37:11.660Z,1268
2017-01-16T08:37:52.173Z,1300
2017-01-16T08:38:32.677Z,1416
2017-01-16T08:39:13.194Z,1456
2017-01-16T08:39:53.668Z,1412
2017-01-16T08:40:34.159Z,1316
2017-01-16T08:41:14.645Z,1324
2017-01-16T08:41:55.141Z,1380
2017-01-16T08:42:35.649Z,1292
2017-01-16T08:43:16.145Z,1276
2017-01-16T08:43:56.614Z,1264
2017-01-16T08:44:37.127Z,1288
2017-01-16T08:45:17.610Z,1380
2017-01-16T08:45:58.173Z,1400
2017-01-16T08:46:38.653Z,1352
2017-01-16T08:47:19.117Z,1280
2017-01-16T08:47:59.587Z,1268
2017-01-16T08:48:40.120Z,1296
2017-01-16T08:49:20.592Z,1400
2017-01-16T08:50:01.097Z,1476
2017-01-16T08:50:41.620Z,1428
2017-01-16T08:51:22.128Z,1416
2017-01-16T08:52:02.671Z,1372
2017-01-16T08:52:43.180Z,1392
2017-01-16T08:53:23.716Z,1444
2017-01-16T08:54:04.224Z,1412
2017-01-16T08:54:44.721Z,1340
2017-01-16T08:55:25.224Z,1328
2017-01-16T08:56:05.740Z,1356
2017-01-16T08:56:46.267Z,1424
2017-01-16T08:57:26.773Z,1536
2017-01-16T08:58:07.290Z,1676
2017-01-16T08:58:47.798Z,1644
2017-01-16T08:59:28.303Z,1600
2017-01-16T09:00:08.803Z,1552
2017-01-16T09:00:49.335Z,1492
2017-01-16T09:01:29.828Z,1448
2017-01-16T09:02:10.336Z,1436
2017-01-16T09:02:50.820Z,1488
2017-01-16T09:03:31.285Z,1516
2017-01-16T09:04:11.765Z,1564
2017-01-16T09:04:52.261Z,1544
2017-01-16T09:05:32.797Z,1560
2017-01-16T09:06:13.260Z,1568
2017-01-16T09:06:53.727Z,1616
2017-01-16T09:07:34.226Z,1784
2017-01-16T09:08:14.730Z,1964
2017-01-16T09:08:55.207Z,1928
2017-01-16T09:09:35.704Z,1840
2017-01-16T09:10:16.198Z,1696
2017-01-16T09:10:56.707Z,1624
2017-01-16T09:11:37.225Z,1788
2017-01-16T09:12:17.726Z,1924
2017-01-16T09:12:58.241Z,1892
2017-01-16T09:13:38.772Z,1732
2017-01-16T09:14:19.291Z,1656
2017-01-16T09:14:59.807Z,1748
2017-01-16T09:15:40.350Z,1972
2017-01-16T09:16:20.860Z,1904
2017-01-16T09:17:01.385Z,1868
2017-01-16T09:17:41.894Z,1928
2017-01-16T09:18:22.416Z,1972
2017-01-16T09:19:02.937Z,2020
2017-01-16T09:19:43.469Z,2044
2017-01-16T09:20:23.973Z,2008
2017-01-16T09:21:04.486Z,1972
2017-01-16T09:21:45.004Z,2008
2017-01-16T09:22:25.492Z,2076
2017-01-16T09:23:05.997Z,2084
2017-01-16T09:23:46.496Z,1848
2017-01-16T09:24:27.016Z,1640
2017-01-16T09:25:07.534Z,1652
2017-01-16T09:25:48.047Z,1800
2017-01-16T09:26:28.559Z,1928
2017-01-16T09:27:09.072Z,1832
2017-01-16T09:27:49.605Z,1836
2017-01-16T09:28:30.136Z,1872
2017-01-16T09:29:10.647Z,1668
2017-01-16T09:29:51.168Z,1580
2017-01-16T09:30:31.677Z,1668
2017-01-16T09:31:12.194Z,1872
2017-01-16T09:31:52.704Z,1816
2017-01-16T09:32:33.228Z,1664
2017-01-16T09:33:13.729Z,1672
2017-01-16T09:33:54.241Z,1832
2017-01-16T09:34:34.760Z,1744
2017-01-16T09:35:15.275Z,1620
2017-01-16T09:35:55.792Z,1636
2017-01-16T09:36:36.307Z,1780
2017-01-16T09:37:16.819Z,1704
2017-01-16T09:37:57.359Z,1628
2017-01-16T09:38:37.865Z,1748
2017-01-16T09:39:18.371Z,1928
2017-01-16T09:39:58.888Z,1940
2017-01-16T09:40:39.388Z,2036
2017-01-16T09:41:19.899Z,2084
2017-01-16T09:42:00.419Z,1904
2017-01-16T09:42:40.939Z,1748
2017-01-16T09:43:21.458Z,1712
2017-01-16T09:44:01.976Z,1980
2017-01-16T09:44:42.492Z,1820
2017-01-16T09:45:23.015Z,1736
2017-01-16T09:46:03.533Z,1688
2017-01-16T09:46:44.055Z,1656
2017-01-16T09:47:24.547Z,1684
2017-01-16T09:48:05.063Z,1580
2017-01-16T09:48:45.573Z,1512
2017-01-16T09:49:26.108Z,1568
2017-01-16T09:50:06.609Z,1708
2017-01-16T09:50:47.122Z,1712
2017-01-16T09:51:27.639Z,1656
2017-01-16T09:52:08.149Z,1632
2017-01-16T09:52:48.641Z,1552
2017-01-16T09:53:29.176Z,1520
2017-01-16T09:54:09.680Z,1572
2017-01-16T09:54:50.201Z,1716
2017-01-16T09:55:30.718Z,1776
2017-01-16T09:56:11.243Z,1756
2017-01-16T09:56:51.750Z,1660
2017-01-16T09:57:32.268Z,1728
2017-01-16T09:58:12.781Z,1884
2017-01-16T09:58:53.294Z,1868
2017-01-16T09:59:33.820Z,1612
2017-01-16T10:00:14.345Z,1540
2017-01-16T10:00:54.877Z,1560
2017-01-16T10:01:35.395Z,1572
2017-01-16T10:02:15.919Z,1620
2017-01-16T10:02:56.435Z,1664
2017-01-16T10:03:36.951Z,1548
2017-01-16T10:04:17.471Z,1528
2017-01-16T10:04:57.975Z,1576